sensor_id;sensor_type;location;lat;lon;timestamp;temperature;humidity
61255;DHT22;47128;47.530;8.584;2022-12-10T00:01:16;2.40;99.90
61255;DHT22;47128;47.530;8.584;2022-12-10T00:03:42;2.40;99.90
61255;DHT22;47128;47.530;8.584;2022-12-10T00:06:10;2.40;99.90
61255;DHT22;47128;47.530;8.584;2022-12-10T00:08:36;2.40;99.90
61255;DHT22;47128;47.530;8.584;2022-12-10T00:11:02;2.40;99.90
61255;DHT22;47128;47.530;8.584;2022-12-10T00:13:27;2.40;99.90
61255;DHT22;47128;47.530;8.584;2022-12-10T00:15:53;2.40;99.90
61255;DHT22;47128;47.530;8.584;2022-12-10T00:18:18;2.40;99.90
61255;DHT22;47128;47.530;8.584;2022-12-10T00:20:44;2.40;99.90
61255;DHT22;47128;47.530;8.584;2022-12-10T00:23:09;2.40;99.90
61255;DHT22;47128;47.530;8.584;2022-12-10T00:25:35;2.40;99.90
61255;DHT22;47128;47.530;8.584;2022-12-10T00:28:00;2.40;99.90
61255;DHT22;47128;47.530;8.584;2022-12-10T00:30:26;2.40;99.90
61255;DHT22;47128;47.530;8.584;2022-12-10T00:32:51;2.30;99.90
61255;DHT22;47128;47.530;8.584;2022-12-10T00:35:17;2.30;99.90
61255;DHT22;47128;47.530;8.584;2022-12-10T00:37:42;2.40;99.90
61255;DHT22;47128;47.530;8.584;2022-12-10T00:40:08;2.40;99.90
61255;DHT22;47128;47.530;8.584;2022-12-10T00:42:33;2.30;99.90
61255;DHT22;47128;47.530;8.584;2022-12-10T00:44:59;2.30;99.90
61255;DHT22;47128;47.530;8.584;2022-12-10T00:47:24;2.20;99.90
61255;DHT22;47128;47.530;8.584;2022-12-10T00:49:50;2.30;99.90
61255;DHT22;47128;47.530;8.584;2022-12-10T00:52:15;2.30;99.90
61255;DHT22;47128;47.530;8.584;2022-12-10T00:54:40;2.30;99.90
61255;DHT22;47128;47.530;8.584;2022-12-10T00:57:06;2.30;99.90
61255;DHT22;47128;47.530;8.584;2022-12-10T00:59:31;2.30;99.90
61255;DHT22;47128;47.530;8.584;2022-12-10T01:01:57;2.30;99.90
61255;DHT22;47128;47.530;8.584;2022-12-10T01:04:22;2.40;99.90
61255;DHT22;47128;47.530;8.584;2022-12-10T01:06:50;2.40;99.90
61255;DHT22;47128;47.530;8.584;2022-12-10T01:09:16;2.30;99.90
61255;DHT22;47128;47.530;8.584;2022-12-10T01:11:43;2.30;99.90
61255;DHT22;47128;47.530;8.584;2022-12-10T01:14:10;2.30;99.90
61255;DHT22;47128;47.530;8.584;2022-12-10T01:16:36;2.30;99.90
61255;DHT22;47128;47.530;8.584;2022-12-10T01:19:02;2.30;99.90
61255;DHT22;47128;47.530;8.584;2022-12-10T01:21:28;2.30;99.90
61255;DHT22;47128;47.530;8.584;2022-12-10T01:23:54;2.40;99.90
61255;DHT22;47128;47.530;8.584;2022-12-10T01:26:21;2.30;99.90
61255;DHT22;47128;47.530;8.584;2022-12-10T01:28:47;2.30;99.90
61255;DHT22;47128;47.530;8.584;2022-12-10T01:31:15;2.30;99.90
61255;DHT22;47128;47.530;8.584;2022-12-10T01:33:41;2.30;99.90
61255;DHT22;47128;47.530;8.584;2022-12-10T01:36:09;2.30;99.90
61255;DHT22;47128;47.530;8.584;2022-12-10T01:38:36;2.30;99.90
61255;DHT22;47128;47.530;8.584;2022-12-10T01:41:02;2.30;99.90
61255;DHT22;47128;47.530;8.584;2022-12-10T01:43:27;2.30;99.90
61255;DHT22;47128;47.530;8.584;2022-12-10T01:45:55;2.30;99.90
61255;DHT22;47128;47.530;8.584;2022-12-10T01:48:20;2.30;99.90
61255;DHT22;47128;47.530;8.584;2022-12-10T01:50:46;2.40;99.90
61255;DHT22;47128;47.530;8.584;2022-12-10T01:53:11;2.30;99.90
61255;DHT22;47128;47.530;8.584;2022-12-10T01:55:50;2.40;99.90
61255;DHT22;47128;47.530;8.584;2022-12-10T01:58:16;2.40;99.90
61255;DHT22;47128;47.530;8.584;2022-12-10T02:00:55;2.50;99.90
61255;DHT22;47128;47.530;8.584;2022-12-10T02:03:29;2.40;99.90
61255;DHT22;47128;47.530;8.584;2022-12-10T02:06:19;2.40;99.90
61255;DHT22;47128;47.530;8.584;2022-12-10T02:09:09;2.40;99.90
61255;DHT22;47128;47.530;8.584;2022-12-10T02:11:41;2.40;99.90
61255;DHT22;47128;47.530;8.584;2022-12-10T02:14:11;2.40;99.90
61255;DHT22;47128;47.530;8.584;2022-12-10T02:16:40;2.40;99.90
61255;DHT22;47128;47.530;8.584;2022-12-10T02:20:09;2.40;99.90
61255;DHT22;47128;47.530;8.584;2022-12-10T02:22:02;2.50;99.90
61255;DHT22;47128;47.530;8.584;2022-12-10T02:24:29;2.50;99.90
61255;DHT22;47128;47.530;8.584;2022-12-10T02:27:02;2.50;99.90
61255;DHT22;47128;47.530;8.584;2022-12-10T02:29:29;2.50;99.90
61255;DHT22;47128;47.530;8.584;2022-12-10T02:32:06;2.50;99.90
61255;DHT22;47128;47.530;8.584;2022-12-10T02:34:36;2.40;99.90
61255;DHT22;47128;47.530;8.584;2022-12-10T02:37:06;2.40;99.90
61255;DHT22;47128;47.530;8.584;2022-12-10T02:39:35;2.40;99.90
61255;DHT22;47128;47.530;8.584;2022-12-10T02:42:03;2.40;99.90
61255;DHT22;47128;47.530;8.584;2022-12-10T02:44:29;2.40;99.90
61255;DHT22;47128;47.530;8.584;2022-12-10T02:46:55;2.40;99.90
61255;DHT22;47128;47.530;8.584;2022-12-10T02:49:21;2.40;99.90
61255;DHT22;47128;47.530;8.584;2022-12-10T02:51:48;2.40;99.90
61255;DHT22;47128;47.530;8.584;2022-12-10T02:56:58;2.40;99.90
61255;DHT22;47128;47.530;8.584;2022-12-10T02:59:33;2.40;99.90
61255;DHT22;47128;47.530;8.584;2022-12-10T03:02:07;2.50;99.90
61255;DHT22;47128;47.530;8.584;2022-12-10T03:07:14;2.50;99.90
61255;DHT22;47128;47.530;8.584;2022-12-10T03:09:48;2.50;99.90
61255;DHT22;47128;47.530;8.584;2022-12-10T03:12:21;2.50;99.90
61255;DHT22;47128;47.530;8.584;2022-12-10T03:14:48;2.50;99.90
61255;DHT22;47128;47.530;8.584;2022-12-10T03:17:13;2.50;99.90
61255;DHT22;47128;47.530;8.584;2022-12-10T03:19:40;2.50;99.90
61255;DHT22;47128;47.530;8.584;2022-12-10T03:22:07;2.50;99.90
61255;DHT22;47128;47.530;8.584;2022-12-10T03:24:35;2.50;99.90
61255;DHT22;47128;47.530;8.584;2022-12-10T03:27:00;2.60;99.90
61255;DHT22;47128;47.530;8.584;2022-12-10T03:29:27;2.60;99.90
61255;DHT22;47128;47.530;8.584;2022-12-10T03:31:54;2.50;99.90
61255;DHT22;47128;47.530;8.584;2022-12-10T03:34:20;2.50;99.90
61255;DHT22;47128;47.530;8.584;2022-12-10T03:36:46;2.50;99.90
61255;DHT22;47128;47.530;8.584;2022-12-10T03:39:12;2.50;99.90
61255;DHT22;47128;47.530;8.584;2022-12-10T03:41:38;2.60;99.90
61255;DHT22;47128;47.530;8.584;2022-12-10T03:44:03;2.50;99.90
61255;DHT22;47128;47.530;8.584;2022-12-10T03:46:30;2.60;99.90
61255;DHT22;47128;47.530;8.584;2022-12-10T03:48:56;2.60;99.90
61255;DHT22;47128;47.530;8.584;2022-12-10T03:51:22;2.60;99.90
61255;DHT22;47128;47.530;8.584;2022-12-10T03:53:47;2.50;99.90
61255;DHT22;47128;47.530;8.584;2022-12-10T03:56:16;2.50;99.90
61255;DHT22;47128;47.530;8.584;2022-12-10T03:58:42;2.50;99.90
61255;DHT22;47128;47.530;8.584;2022-12-10T04:01:07;2.50;99.90
61255;DHT22;47128;47.530;8.584;2022-12-10T04:03:36;2.50;99.90
61255;DHT22;47128;47.530;8.584;2022-12-10T04:06:03;2.50;99.90
61255;DHT22;47128;47.530;8.584;2022-12-10T04:08:28;2.40;99.90
61255;DHT22;47128;47.530;8.584;2022-12-10T04:10:54;2.50;99.90
61255;DHT22;47128;47.530;8.584;2022-12-10T04:13:19;2.50;99.90
61255;DHT22;47128;47.530;8.584;2022-12-10T04:16:04;2.50;99.90
61255;DHT22;47128;47.530;8.584;2022-12-10T04:19:06;2.50;99.90
61255;DHT22;47128;47.530;8.584;2022-12-10T04:21:33;2.50;99.90
61255;DHT22;47128;47.530;8.584;2022-12-10T04:24:18;2.40;99.90
61255;DHT22;47128;47.530;8.584;2022-12-10T04:27:04;2.40;99.90
61255;DHT22;47128;47.530;8.584;2022-12-10T04:29:30;2.50;99.90
61255;DHT22;47128;47.530;8.584;2022-12-10T04:31:56;2.50;99.90
61255;DHT22;47128;47.530;8.584;2022-12-10T04:34:22;2.50;99.90
61255;DHT22;47128;47.530;8.584;2022-12-10T04:36:48;2.50;99.90
61255;DHT22;47128;47.530;8.584;2022-12-10T04:39:15;2.50;99.90
61255;DHT22;47128;47.530;8.584;2022-12-10T04:41:41;2.50;99.90
61255;DHT22;47128;47.530;8.584;2022-12-10T04:44:07;2.40;99.90
61255;DHT22;47128;47.530;8.584;2022-12-10T04:46:33;2.50;99.90
61255;DHT22;47128;47.530;8.584;2022-12-10T04:48:59;2.50;99.90
61255;DHT22;47128;47.530;8.584;2022-12-10T04:51:24;2.40;99.90
61255;DHT22;47128;47.530;8.584;2022-12-10T04:53:49;2.40;99.90
61255;DHT22;47128;47.530;8.584;2022-12-10T04:56:15;2.40;99.90
61255;DHT22;47128;47.530;8.584;2022-12-10T04:58:40;2.40;99.90
61255;DHT22;47128;47.530;8.584;2022-12-10T05:01:07;2.40;99.90
61255;DHT22;47128;47.530;8.584;2022-12-10T05:03:33;2.30;99.90
61255;DHT22;47128;47.530;8.584;2022-12-10T05:06:02;2.40;99.90
61255;DHT22;47128;47.530;8.584;2022-12-10T05:08:28;2.40;99.90
61255;DHT22;47128;47.530;8.584;2022-12-10T05:10:54;2.40;99.90
61255;DHT22;47128;47.530;8.584;2022-12-10T05:13:19;2.50;99.90
61255;DHT22;47128;47.530;8.584;2022-12-10T05:15:45;2.40;99.90
61255;DHT22;47128;47.530;8.584;2022-12-10T05:18:10;2.40;99.90
61255;DHT22;47128;47.530;8.584;2022-12-10T05:20:36;2.40;99.90
61255;DHT22;47128;47.530;8.584;2022-12-10T05:23:01;2.40;99.90
61255;DHT22;47128;47.530;8.584;2022-12-10T05:25:45;2.40;99.90
61255;DHT22;47128;47.530;8.584;2022-12-10T05:28:23;2.40;99.90
61255;DHT22;47128;47.530;8.584;2022-12-10T05:30:48;2.40;99.90
61255;DHT22;47128;47.530;8.584;2022-12-10T05:33:14;2.40;99.90
61255;DHT22;47128;47.530;8.584;2022-12-10T05:35:40;2.40;99.90
61255;DHT22;47128;47.530;8.584;2022-12-10T05:38:06;2.40;99.90
61255;DHT22;47128;47.530;8.584;2022-12-10T05:40:34;2.40;99.90
61255;DHT22;47128;47.530;8.584;2022-12-10T05:43:00;2.40;99.90
61255;DHT22;47128;47.530;8.584;2022-12-10T05:45:27;2.40;99.90
61255;DHT22;47128;47.530;8.584;2022-12-10T05:47:52;2.40;99.90
61255;DHT22;47128;47.530;8.584;2022-12-10T05:50:18;2.40;99.90
61255;DHT22;47128;47.530;8.584;2022-12-10T05:52:43;2.40;99.90
61255;DHT22;47128;47.530;8.584;2022-12-10T05:55:09;2.40;99.90
61255;DHT22;47128;47.530;8.584;2022-12-10T05:57:35;2.40;99.90
61255;DHT22;47128;47.530;8.584;2022-12-10T06:00:01;2.40;99.90
61255;DHT22;47128;47.530;8.584;2022-12-10T06:02:26;2.40;99.90
61255;DHT22;47128;47.530;8.584;2022-12-10T06:04:52;2.40;99.90
61255;DHT22;47128;47.530;8.584;2022-12-10T06:07:17;2.30;99.90
61255;DHT22;47128;47.530;8.584;2022-12-10T06:09:43;2.40;99.90
61255;DHT22;47128;47.530;8.584;2022-12-10T06:12:08;2.30;99.90
61255;DHT22;47128;47.530;8.584;2022-12-10T06:14:34;2.30;99.90
61255;DHT22;47128;47.530;8.584;2022-12-10T06:16:59;2.40;99.90
61255;DHT22;47128;47.530;8.584;2022-12-10T06:19:25;2.30;99.90
61255;DHT22;47128;47.530;8.584;2022-12-10T06:21:50;2.20;99.90
61255;DHT22;47128;47.530;8.584;2022-12-10T06:24:15;2.20;99.90
61255;DHT22;47128;47.530;8.584;2022-12-10T06:26:41;2.20;99.90
61255;DHT22;47128;47.530;8.584;2022-12-10T06:29:06;2.20;99.90
61255;DHT22;47128;47.530;8.584;2022-12-10T06:31:32;2.20;99.90
61255;DHT22;47128;47.530;8.584;2022-12-10T06:33:57;2.20;99.90
61255;DHT22;47128;47.530;8.584;2022-12-10T06:36:23;2.20;99.90
61255;DHT22;47128;47.530;8.584;2022-12-10T06:38:48;2.20;99.90
61255;DHT22;47128;47.530;8.584;2022-12-10T06:41:15;2.20;99.90
61255;DHT22;47128;47.530;8.584;2022-12-10T06:43:40;2.20;99.90
61255;DHT22;47128;47.530;8.584;2022-12-10T06:46:06;2.20;99.90
61255;DHT22;47128;47.530;8.584;2022-12-10T06:48:32;2.20;99.90
61255;DHT22;47128;47.530;8.584;2022-12-10T06:50:58;2.20;99.90
61255;DHT22;47128;47.530;8.584;2022-12-10T06:53:23;2.20;99.90
61255;DHT22;47128;47.530;8.584;2022-12-10T06:55:49;2.20;99.90
61255;DHT22;47128;47.530;8.584;2022-12-10T06:58:14;2.20;99.90
61255;DHT22;47128;47.530;8.584;2022-12-10T07:00:39;2.30;99.90
61255;DHT22;47128;47.530;8.584;2022-12-10T07:03:05;2.30;99.90
61255;DHT22;47128;47.530;8.584;2022-12-10T07:05:30;2.30;99.90
61255;DHT22;47128;47.530;8.584;2022-12-10T07:07:56;2.30;99.90
61255;DHT22;47128;47.530;8.584;2022-12-10T07:10:21;2.30;99.90
61255;DHT22;47128;47.530;8.584;2022-12-10T07:12:47;2.30;99.90
61255;DHT22;47128;47.530;8.584;2022-12-10T07:15:13;2.20;99.90
61255;DHT22;47128;47.530;8.584;2022-12-10T07:17:38;2.20;99.90
61255;DHT22;47128;47.530;8.584;2022-12-10T07:20:04;2.20;99.90
61255;DHT22;47128;47.530;8.584;2022-12-10T07:22:29;2.30;99.90
61255;DHT22;47128;47.530;8.584;2022-12-10T07:24:55;2.30;99.90
61255;DHT22;47128;47.530;8.584;2022-12-10T07:27:20;2.20;99.90
61255;DHT22;47128;47.530;8.584;2022-12-10T07:29:46;2.20;99.90
61255;DHT22;47128;47.530;8.584;2022-12-10T07:32:11;2.30;99.90
61255;DHT22;47128;47.530;8.584;2022-12-10T07:34:37;2.40;99.90
61255;DHT22;47128;47.530;8.584;2022-12-10T07:37:02;2.40;99.90
61255;DHT22;47128;47.530;8.584;2022-12-10T07:39:28;2.40;99.90
61255;DHT22;47128;47.530;8.584;2022-12-10T07:41:53;2.30;99.90
61255;DHT22;47128;47.530;8.584;2022-12-10T07:44:22;2.40;99.90
61255;DHT22;47128;47.530;8.584;2022-12-10T07:46:49;2.40;99.90
61255;DHT22;47128;47.530;8.584;2022-12-10T07:49:14;2.40;99.90
61255;DHT22;47128;47.530;8.584;2022-12-10T07:51:43;2.40;99.90
61255;DHT22;47128;47.530;8.584;2022-12-10T07:54:08;2.30;99.90
61255;DHT22;47128;47.530;8.584;2022-12-10T07:56:34;2.30;99.90
61255;DHT22;47128;47.530;8.584;2022-12-10T07:58:59;2.20;99.90
61255;DHT22;47128;47.530;8.584;2022-12-10T08:01:25;2.30;99.90
61255;DHT22;47128;47.530;8.584;2022-12-10T08:03:52;2.30;99.90
61255;DHT22;47128;47.530;8.584;2022-12-10T08:06:18;2.30;99.90
61255;DHT22;47128;47.530;8.584;2022-12-10T08:08:44;2.30;99.90
61255;DHT22;47128;47.530;8.584;2022-12-10T08:11:10;2.30;99.90
61255;DHT22;47128;47.530;8.584;2022-12-10T08:13:36;2.30;99.90
61255;DHT22;47128;47.530;8.584;2022-12-10T08:16:02;2.30;99.90
61255;DHT22;47128;47.530;8.584;2022-12-10T08:18:28;2.30;99.90
61255;DHT22;47128;47.530;8.584;2022-12-10T08:20:53;2.30;99.90
61255;DHT22;47128;47.530;8.584;2022-12-10T08:23:18;2.30;99.90
61255;DHT22;47128;47.530;8.584;2022-12-10T08:25:44;2.30;99.90
61255;DHT22;47128;47.530;8.584;2022-12-10T08:28:11;2.30;99.90
61255;DHT22;47128;47.530;8.584;2022-12-10T08:30:36;2.20;99.90
61255;DHT22;47128;47.530;8.584;2022-12-10T08:33:01;2.20;99.90
61255;DHT22;47128;47.530;8.584;2022-12-10T08:35:27;2.20;99.90
61255;DHT22;47128;47.530;8.584;2022-12-10T08:37:53;2.20;99.90
61255;DHT22;47128;47.530;8.584;2022-12-10T08:40:18;2.20;99.90
61255;DHT22;47128;47.530;8.584;2022-12-10T08:42:44;2.10;99.90
61255;DHT22;47128;47.530;8.584;2022-12-10T08:45:09;2.10;99.90
61255;DHT22;47128;47.530;8.584;2022-12-10T08:47:35;2.10;99.90
61255;DHT22;47128;47.530;8.584;2022-12-10T08:50:00;2.00;99.90
61255;DHT22;47128;47.530;8.584;2022-12-10T08:52:26;2.10;99.90
61255;DHT22;47128;47.530;8.584;2022-12-10T08:54:54;2.00;99.90
61255;DHT22;47128;47.530;8.584;2022-12-10T08:57:19;2.00;99.90
61255;DHT22;47128;47.530;8.584;2022-12-10T08:59:45;2.00;99.90
61255;DHT22;47128;47.530;8.584;2022-12-10T09:02:10;2.00;99.90
61255;DHT22;47128;47.530;8.584;2022-12-10T09:04:36;2.00;99.90
61255;DHT22;47128;47.530;8.584;2022-12-10T09:07:02;1.90;99.90
61255;DHT22;47128;47.530;8.584;2022-12-10T09:09:28;1.90;99.90
61255;DHT22;47128;47.530;8.584;2022-12-10T09:11:54;1.90;99.90
61255;DHT22;47128;47.530;8.584;2022-12-10T09:14:19;1.90;99.90
61255;DHT22;47128;47.530;8.584;2022-12-10T09:16:45;1.90;99.90
61255;DHT22;47128;47.530;8.584;2022-12-10T09:19:10;1.90;99.90
61255;DHT22;47128;47.530;8.584;2022-12-10T09:21:36;1.90;99.90
61255;DHT22;47128;47.530;8.584;2022-12-10T09:24:01;1.90;99.90
61255;DHT22;47128;47.530;8.584;2022-12-10T09:26:27;1.80;99.90
61255;DHT22;47128;47.530;8.584;2022-12-10T09:28:52;1.90;99.90
61255;DHT22;47128;47.530;8.584;2022-12-10T09:31:18;1.90;99.90
61255;DHT22;47128;47.530;8.584;2022-12-10T09:33:44;1.90;99.90
61255;DHT22;47128;47.530;8.584;2022-12-10T09:36:10;1.90;99.90
61255;DHT22;47128;47.530;8.584;2022-12-10T09:38:37;1.90;99.90
61255;DHT22;47128;47.530;8.584;2022-12-10T09:41:10;2.00;99.90
61255;DHT22;47128;47.530;8.584;2022-12-10T09:48:49;2.10;99.90
61255;DHT22;47128;47.530;8.584;2022-12-10T09:51:32;2.20;99.90
61255;DHT22;47128;47.530;8.584;2022-12-10T09:53:59;2.20;99.90
61255;DHT22;47128;47.530;8.584;2022-12-10T09:56:26;2.30;99.90
61255;DHT22;47128;47.530;8.584;2022-12-10T09:58:53;2.20;99.90
61255;DHT22;47128;47.530;8.584;2022-12-10T10:01:19;2.20;99.90
61255;DHT22;47128;47.530;8.584;2022-12-10T10:03:48;2.20;99.90
61255;DHT22;47128;47.530;8.584;2022-12-10T10:06:13;2.20;99.90
61255;DHT22;47128;47.530;8.584;2022-12-10T10:08:41;2.30;99.90
61255;DHT22;47128;47.530;8.584;2022-12-10T10:11:11;2.30;99.90
61255;DHT22;47128;47.530;8.584;2022-12-10T10:13:39;2.30;99.90
61255;DHT22;47128;47.530;8.584;2022-12-10T10:18:41;2.30;99.90
61255;DHT22;47128;47.530;8.584;2022-12-10T10:21:21;2.40;99.90
61255;DHT22;47128;47.530;8.584;2022-12-10T10:23:48;2.40;99.90
61255;DHT22;47128;47.530;8.584;2022-12-10T10:26:14;2.40;99.90
61255;DHT22;47128;47.530;8.584;2022-12-10T10:28:40;2.40;99.90
61255;DHT22;47128;47.530;8.584;2022-12-10T10:31:16;2.40;99.90
61255;DHT22;47128;47.530;8.584;2022-12-10T10:33:56;2.40;99.90
61255;DHT22;47128;47.530;8.584;2022-12-10T10:36:32;2.40;99.90
61255;DHT22;47128;47.530;8.584;2022-12-10T10:39:22;2.40;99.90
61255;DHT22;47128;47.530;8.584;2022-12-10T10:41:53;2.40;99.90
61255;DHT22;47128;47.530;8.584;2022-12-10T10:44:20;2.40;99.90
61255;DHT22;47128;47.530;8.584;2022-12-10T10:46:47;2.30;99.90
61255;DHT22;47128;47.530;8.584;2022-12-10T10:49:26;2.40;99.90
61255;DHT22;47128;47.530;8.584;2022-12-10T10:51:52;2.30;99.90
61255;DHT22;47128;47.530;8.584;2022-12-10T10:54:39;2.30;99.90
61255;DHT22;47128;47.530;8.584;2022-12-10T10:57:12;2.30;99.90
61255;DHT22;47128;47.530;8.584;2022-12-10T10:59:40;2.30;99.90
61255;DHT22;47128;47.530;8.584;2022-12-10T11:04:46;2.40;99.90
61255;DHT22;47128;47.530;8.584;2022-12-10T11:07:16;2.40;99.90
61255;DHT22;47128;47.530;8.584;2022-12-10T11:09:42;2.30;99.90
61255;DHT22;47128;47.530;8.584;2022-12-10T11:12:56;2.30;99.90
61255;DHT22;47128;47.530;8.584;2022-12-10T11:14:56;2.30;99.90
61255;DHT22;47128;47.530;8.584;2022-12-10T11:17:23;2.20;99.90
61255;DHT22;47128;47.530;8.584;2022-12-10T11:20:13;2.20;99.90
61255;DHT22;47128;47.530;8.584;2022-12-10T11:22:41;2.20;99.90
61255;DHT22;47128;47.530;8.584;2022-12-10T11:25:14;2.20;99.90
61255;DHT22;47128;47.530;8.584;2022-12-10T11:30:15;2.20;99.90
61255;DHT22;47128;47.530;8.584;2022-12-10T11:43:19;2.20;99.90
61255;DHT22;47128;47.530;8.584;2022-12-10T11:45:52;2.20;99.90
61255;DHT22;47128;47.530;8.584;2022-12-10T11:51:09;2.10;99.90
61255;DHT22;47128;47.530;8.584;2022-12-10T12:13:47;2.10;99.90
61255;DHT22;47128;47.530;8.584;2022-12-10T12:16:18;2.00;99.90
61255;DHT22;47128;47.530;8.584;2022-12-10T12:18:55;2.10;99.90
61255;DHT22;47128;47.530;8.584;2022-12-10T12:21:22;2.10;99.90
61255;DHT22;47128;47.530;8.584;2022-12-10T12:26:37;2.10;99.90
61255;DHT22;47128;47.530;8.584;2022-12-10T12:29:39;2.00;99.90
61255;DHT22;47128;47.530;8.584;2022-12-10T12:37:21;2.00;99.90
61255;DHT22;47128;47.530;8.584;2022-12-10T12:39:59;2.00;99.90
61255;DHT22;47128;47.530;8.584;2022-12-10T12:42:36;2.00;99.90
61255;DHT22;47128;47.530;8.584;2022-12-10T12:45:10;2.00;99.90
61255;DHT22;47128;47.530;8.584;2022-12-10T12:47:39;2.00;99.90
61255;DHT22;47128;47.530;8.584;2022-12-10T12:52:58;1.90;99.90
61255;DHT22;47128;47.530;8.584;2022-12-10T12:58:16;2.00;99.90
61255;DHT22;47128;47.530;8.584;2022-12-10T13:00:43;2.00;99.90
61255;DHT22;47128;47.530;8.584;2022-12-10T13:03:18;2.00;99.90
61255;DHT22;47128;47.530;8.584;2022-12-10T13:05:46;2.00;99.90
61255;DHT22;47128;47.530;8.584;2022-12-10T13:10:44;1.90;99.90
61255;DHT22;47128;47.530;8.584;2022-12-10T13:15:54;1.90;99.90
61255;DHT22;47128;47.530;8.584;2022-12-10T13:18:33;1.90;99.90
61255;DHT22;47128;47.530;8.584;2022-12-10T13:23:47;1.90;99.90
61255;DHT22;47128;47.530;8.584;2022-12-10T13:26:29;1.90;99.90
61255;DHT22;47128;47.530;8.584;2022-12-10T13:28:55;1.90;99.90
61255;DHT22;47128;47.530;8.584;2022-12-10T13:31:22;1.90;99.90
61255;DHT22;47128;47.530;8.584;2022-12-10T13:36:27;1.90;99.90
61255;DHT22;47128;47.530;8.584;2022-12-10T13:41:21;1.80;99.90
61255;DHT22;47128;47.530;8.584;2022-12-10T13:44:24;1.90;99.90
61255;DHT22;47128;47.530;8.584;2022-12-10T13:46:52;1.80;99.90
61255;DHT22;47128;47.530;8.584;2022-12-10T13:49:18;1.80;99.90
61255;DHT22;47128;47.530;8.584;2022-12-10T13:54:22;1.80;99.90
61255;DHT22;47128;47.530;8.584;2022-12-10T14:07:15;1.80;99.90
61255;DHT22;47128;47.530;8.584;2022-12-10T14:09:46;1.80;99.90
61255;DHT22;47128;47.530;8.584;2022-12-10T14:12:14;1.80;99.90
61255;DHT22;47128;47.530;8.584;2022-12-10T14:14:50;1.70;99.90
61255;DHT22;47128;47.530;8.584;2022-12-10T14:17:18;1.70;99.90
61255;DHT22;47128;47.530;8.584;2022-12-10T14:19:47;1.70;99.90
61255;DHT22;47128;47.530;8.584;2022-12-10T14:22:27;1.70;99.90
61255;DHT22;47128;47.530;8.584;2022-12-10T14:24:54;1.70;99.90
61255;DHT22;47128;47.530;8.584;2022-12-10T14:27:24;1.70;99.90
61255;DHT22;47128;47.530;8.584;2022-12-10T14:29:51;1.70;99.90
61255;DHT22;47128;47.530;8.584;2022-12-10T14:32:18;1.70;99.90
61255;DHT22;47128;47.530;8.584;2022-12-10T14:34:55;1.80;99.90
61255;DHT22;47128;47.530;8.584;2022-12-10T14:37:23;1.80;99.90
61255;DHT22;47128;47.530;8.584;2022-12-10T14:39:49;1.80;99.90
61255;DHT22;47128;47.530;8.584;2022-12-10T14:42:15;1.90;99.90
61255;DHT22;47128;47.530;8.584;2022-12-10T14:44:41;1.90;99.90
61255;DHT22;47128;47.530;8.584;2022-12-10T14:47:12;1.90;99.90
61255;DHT22;47128;47.530;8.584;2022-12-10T14:49:38;1.90;99.90
61255;DHT22;47128;47.530;8.584;2022-12-10T14:52:09;1.90;99.90
61255;DHT22;47128;47.530;8.584;2022-12-10T14:54:35;1.90;99.90
61255;DHT22;47128;47.530;8.584;2022-12-10T14:57:03;1.90;99.90
61255;DHT22;47128;47.530;8.584;2022-12-10T14:59:31;1.90;99.90
61255;DHT22;47128;47.530;8.584;2022-12-10T15:02:01;1.80;99.90
61255;DHT22;47128;47.530;8.584;2022-12-10T15:04:40;1.80;99.90
61255;DHT22;47128;47.530;8.584;2022-12-10T15:07:07;1.80;99.90
61255;DHT22;47128;47.530;8.584;2022-12-10T15:09:36;1.80;99.90
61255;DHT22;47128;47.530;8.584;2022-12-10T15:12:02;1.80;99.90
61255;DHT22;47128;47.530;8.584;2022-12-10T15:14:28;1.80;99.90
61255;DHT22;47128;47.530;8.584;2022-12-10T15:16:55;1.80;99.90
61255;DHT22;47128;47.530;8.584;2022-12-10T15:19:25;1.80;99.90
61255;DHT22;47128;47.530;8.584;2022-12-10T15:24:41;1.70;99.90
61255;DHT22;47128;47.530;8.584;2022-12-10T15:27:17;1.70;99.90
61255;DHT22;47128;47.530;8.584;2022-12-10T15:29:43;1.70;99.90
61255;DHT22;47128;47.530;8.584;2022-12-10T15:32:16;1.70;99.90
61255;DHT22;47128;47.530;8.584;2022-12-10T15:34:47;1.60;99.90
61255;DHT22;47128;47.530;8.584;2022-12-10T15:37:18;1.60;99.90
61255;DHT22;47128;47.530;8.584;2022-12-10T15:39:46;1.60;99.90
61255;DHT22;47128;47.530;8.584;2022-12-10T15:42:27;1.60;99.90
61255;DHT22;47128;47.530;8.584;2022-12-10T15:44:54;1.60;99.90
61255;DHT22;47128;47.530;8.584;2022-12-10T15:47:22;1.60;99.90
61255;DHT22;47128;47.530;8.584;2022-12-10T15:49:48;1.50;99.90
61255;DHT22;47128;47.530;8.584;2022-12-10T15:52:15;1.50;99.90
61255;DHT22;47128;47.530;8.584;2022-12-10T15:54:42;1.50;99.90
61255;DHT22;47128;47.530;8.584;2022-12-10T15:57:12;1.50;99.90
61255;DHT22;47128;47.530;8.584;2022-12-10T15:59:38;1.50;99.90
61255;DHT22;47128;47.530;8.584;2022-12-10T16:02:07;1.50;99.90
61255;DHT22;47128;47.530;8.584;2022-12-10T16:04:35;1.50;99.90
61255;DHT22;47128;47.530;8.584;2022-12-10T16:07:00;1.50;99.90
61255;DHT22;47128;47.530;8.584;2022-12-10T16:09:26;1.50;99.90
61255;DHT22;47128;47.530;8.584;2022-12-10T16:11:51;1.50;99.90
61255;DHT22;47128;47.530;8.584;2022-12-10T16:14:17;1.40;99.90
61255;DHT22;47128;47.530;8.584;2022-12-10T16:16:42;1.40;99.90
61255;DHT22;47128;47.530;8.584;2022-12-10T16:19:09;1.50;99.90
61255;DHT22;47128;47.530;8.584;2022-12-10T16:21:35;1.40;99.90
61255;DHT22;47128;47.530;8.584;2022-12-10T16:24:01;1.50;99.90
61255;DHT22;47128;47.530;8.584;2022-12-10T16:26:26;1.50;99.90
61255;DHT22;47128;47.530;8.584;2022-12-10T16:28:52;1.50;99.90
61255;DHT22;47128;47.530;8.584;2022-12-10T16:31:19;1.40;99.90
61255;DHT22;47128;47.530;8.584;2022-12-10T16:33:45;1.50;99.90
61255;DHT22;47128;47.530;8.584;2022-12-10T16:36:11;1.40;99.90
61255;DHT22;47128;47.530;8.584;2022-12-10T16:38:37;1.40;99.90
61255;DHT22;47128;47.530;8.584;2022-12-10T16:41:03;1.40;99.90
61255;DHT22;47128;47.530;8.584;2022-12-10T16:43:29;1.40;99.90
61255;DHT22;47128;47.530;8.584;2022-12-10T16:45:55;1.40;99.90
61255;DHT22;47128;47.530;8.584;2022-12-10T16:48:21;1.30;99.90
61255;DHT22;47128;47.530;8.584;2022-12-10T16:50:48;1.40;99.90
61255;DHT22;47128;47.530;8.584;2022-12-10T16:53:15;1.40;99.90
61255;DHT22;47128;47.530;8.584;2022-12-10T16:55:42;1.40;99.90
61255;DHT22;47128;47.530;8.584;2022-12-10T16:58:11;1.40;99.90
61255;DHT22;47128;47.530;8.584;2022-12-10T17:00:39;1.40;99.90
61255;DHT22;47128;47.530;8.584;2022-12-10T17:03:05;1.40;99.90
61255;DHT22;47128;47.530;8.584;2022-12-10T17:05:41;1.30;99.90
61255;DHT22;47128;47.530;8.584;2022-12-10T17:08:07;1.40;99.90
61255;DHT22;47128;47.530;8.584;2022-12-10T17:10:33;1.40;99.90
61255;DHT22;47128;47.530;8.584;2022-12-10T17:13:17;1.40;99.90
61255;DHT22;47128;47.530;8.584;2022-12-10T17:15:45;1.40;99.90
61255;DHT22;47128;47.530;8.584;2022-12-10T17:18:14;1.40;99.90
61255;DHT22;47128;47.530;8.584;2022-12-10T17:20:40;1.40;99.90
61255;DHT22;47128;47.530;8.584;2022-12-10T17:23:05;1.40;99.90
61255;DHT22;47128;47.530;8.584;2022-12-10T17:25:31;1.50;99.90